createdAt,value
2018-12-12T00:01:26.197Z,1.10
2018-12-12T00:03:53.657Z,1.00
2018-12-12T00:06:21.118Z,1.00
2018-12-12T00:08:48.592Z,1.00
2018-12-12T00:11:16.148Z,1.10
2018-12-12T00:13:43.600Z,1.20
2018-12-12T00:16:11.468Z,1.50
2018-12-12T00:18:39.149Z,1.40
2018-12-12T00:21:06.648Z,1.50
2018-12-12T00:23:34.088Z,1.50
2018-12-12T00:26:01.559Z,1.40
2018-12-12T00:28:29.305Z,1.50
2018-12-12T00:30:56.797Z,1.30
2018-12-12T00:33:24.248Z,1.20
2018-12-12T00:35:51.717Z,1.20
2018-12-12T00:38:19.165Z,1.40
2018-12-12T00:40:46.621Z,1.50
2018-12-12T00:43:15.075Z,1.20
2018-12-12T00:45:42.548Z,0.90
2018-12-12T00:48:10.224Z,1.00
2018-12-12T00:50:37.723Z,1.20
2018-12-12T00:53:05.218Z,1.20
2018-12-12T00:55:32.673Z,1.10
2018-12-12T00:58:01.102Z,1.10
2018-12-12T01:00:28.565Z,1.30
2018-12-12T01:02:56.052Z,1.50
2018-12-12T01:05:23.546Z,1.60
2018-12-12T01:07:51.002Z,1.20
2018-12-12T01:10:18.461Z,1.00
2018-12-12T01:12:45.925Z,0.90
2018-12-12T01:15:13.387Z,0.70
2018-12-12T01:17:40.836Z,0.80
2018-12-12T01:20:08.320Z,1.00
2018-12-12T01:22:35.761Z,1.10
2018-12-12T01:25:03.298Z,1.00
2018-12-12T01:27:30.785Z,0.90
2018-12-12T01:29:58.251Z,1.00
2018-12-12T01:32:25.714Z,1.00
2018-12-12T01:34:53.253Z,1.10
2018-12-12T01:37:20.749Z,0.90
2018-12-12T01:39:48.272Z,0.80
2018-12-12T01:42:15.749Z,0.70
2018-12-12T01:44:43.220Z,0.80
2018-12-12T01:47:10.678Z,1.10
2018-12-12T01:49:38.148Z,1.10
2018-12-12T01:52:05.599Z,1.20
2018-12-12T01:54:33.059Z,1.40
2018-12-12T01:57:00.517Z,1.40
2018-12-12T01:59:28.030Z,1.50
2018-12-12T02:01:55.518Z,1.10
2018-12-12T02:04:23.005Z,1.00
2018-12-12T02:06:50.473Z,1.00
2018-12-12T02:09:18.316Z,1.00
2018-12-12T02:11:45.745Z,0.70
2018-12-12T02:14:13.245Z,0.90
2018-12-12T02:16:41.110Z,0.90
2018-12-12T02:19:08.548Z,0.70
2018-12-12T02:21:36.020Z,0.60
2018-12-12T02:24:03.506Z,0.60
2018-12-12T02:26:30.974Z,0.60
2018-12-12T02:28:58.518Z,0.60
2018-12-12T02:31:25.987Z,0.70
2018-12-12T02:33:53.508Z,1.10
2018-12-12T02:36:20.972Z,1.30
2018-12-12T02:38:48.430Z,1.30
2018-12-12T02:41:16.051Z,1.20
2018-12-12T02:43:43.497Z,1.30
2018-12-12T02:46:10.976Z,1.00
2018-12-12T02:48:38.445Z,0.80
2018-12-12T02:51:05.938Z,0.60
2018-12-12T02:53:33.415Z,0.60
2018-12-12T02:56:00.909Z,0.60
2018-12-12T02:58:28.373Z,0.60
2018-12-12T03:00:55.850Z,0.80
2018-12-12T03:03:23.303Z,0.70
2018-12-12T03:05:50.767Z,0.50
2018-12-12T03:08:18.223Z,0.60
2018-12-12T03:10:45.684Z,0.90
2018-12-12T03:13:13.157Z,1.00
2018-12-12T03:15:40.636Z,1.00
2018-12-12T03:18:08.073Z,1.00
2018-12-12T03:20:35.527Z,0.90
2018-12-12T03:23:03.049Z,0.80
2018-12-12T03:25:30.514Z,1.00
2018-12-12T03:27:57.988Z,0.90
2018-12-12T03:30:25.469Z,0.80
2018-12-12T03:32:53.014Z,0.80
2018-12-12T03:35:20.474Z,1.00
2018-12-12T03:37:47.967Z,1.00
2018-12-12T03:40:15.470Z,1.00
2018-12-12T03:42:43.433Z,1.00
2018-12-12T03:45:10.925Z,1.10
2018-12-12T03:47:38.404Z,1.10
2018-12-12T03:50:05.908Z,1.10
2018-12-12T03:52:33.353Z,1.10
2018-12-12T03:55:00.842Z,1.10
2018-12-12T03:57:28.396Z,1.00
2018-12-12T03:59:55.866Z,0.70
2018-12-12T04:02:23.332Z,0.70
2018-12-12T04:04:50.779Z,0.90
2018-12-12T04:07:18.675Z,1.00
2018-12-12T04:09:46.528Z,0.80
2018-12-12T04:12:14.021Z,0.60
2018-12-12T04:14:41.475Z,0.40
2018-12-12T04:17:08.937Z,0.20
2018-12-12T04:19:36.389Z,0.10
2018-12-12T04:22:03.931Z,0.30
2018-12-12T04:24:31.716Z,0.20
2018-12-12T04:26:59.162Z,0.10
2018-12-12T04:29:26.616Z,0.00
2018-12-12T04:31:54.227Z,-0.10
2018-12-12T04:34:21.746Z,-0.20
2018-12-12T04:36:49.223Z,-0.20
2018-12-12T04:39:16.689Z,-0.20
2018-12-12T04:41:44.198Z,-0.10
2018-12-12T04:44:11.682Z,0.20
2018-12-12T04:46:39.483Z,0.50
2018-12-12T04:49:06.919Z,0.70
2018-12-12T04:51:34.373Z,0.80
2018-12-12T04:54:01.827Z,0.80
2018-12-12T04:56:29.276Z,0.80
2018-12-12T04:58:57.171Z,0.80
2018-12-12T05:01:24.982Z,0.80
2018-12-12T05:03:52.445Z,0.70
2018-12-12T05:06:19.937Z,0.70
2018-12-12T05:08:47.398Z,0.60
2018-12-12T05:11:14.875Z,0.70
2018-12-12T05:13:46.892Z,0.60
2018-12-12T05:16:14.770Z,0.60
2018-12-12T05:18:42.225Z,0.40
2018-12-12T05:21:09.687Z,0.40
2018-12-12T05:23:37.129Z,0.50
2018-12-12T05:26:04.635Z,0.40
2018-12-12T05:28:32.119Z,0.10
2018-12-12T05:30:59.600Z,0.20
2018-12-12T05:33:27.057Z,0.30
2018-12-12T05:35:54.525Z,0.40
2018-12-12T05:38:21.993Z,0.40
2018-12-12T05:40:49.449Z,0.40
2018-12-12T05:43:16.906Z,0.40
2018-12-12T05:45:44.597Z,0.40
2018-12-12T05:48:12.061Z,0.30
2018-12-12T05:50:39.510Z,0.20
2018-12-12T05:53:07.012Z,0.20
2018-12-12T05:55:34.461Z,0.20
2018-12-12T05:58:02.013Z,-0.10
2018-12-12T06:00:29.497Z,-0.50
2018-12-12T06:02:56.964Z,-0.40
2018-12-12T06:05:24.513Z,-0.30
2018-12-12T06:07:51.985Z,-0.30
2018-12-12T06:10:19.438Z,-0.50
2018-12-12T06:12:47.417Z,-0.40
2018-12-12T06:15:14.860Z,-0.80
2018-12-12T06:17:42.380Z,-0.80
2018-12-12T06:20:09.931Z,-0.50
2018-12-12T06:22:38.106Z,-0.60
2018-12-12T06:25:05.739Z,-0.60
2018-12-12T06:27:33.273Z,-0.30
2018-12-12T06:30:00.729Z,-0.10
2018-12-12T06:32:28.193Z,-0.50
2018-12-12T06:34:55.669Z,-0.60
2018-12-12T06:37:23.152Z,-0.70
2018-12-12T06:39:50.604Z,-0.90
2018-12-12T06:42:18.073Z,-1.00
2018-12-12T06:44:45.528Z,-0.90
2018-12-12T06:47:12.989Z,-0.90
2018-12-12T06:49:40.454Z,-0.90
2018-12-12T06:52:07.960Z,-0.80
2018-12-12T06:54:35.426Z,-0.80
2018-12-12T06:57:02.876Z,-0.90
2018-12-12T06:59:30.340Z,-0.90
2018-12-12T07:01:57.860Z,-0.90
2018-12-12T07:04:25.360Z,-0.80
2018-12-12T07:06:52.913Z,-0.80
2018-12-12T07:09:20.814Z,-0.70
2018-12-12T07:11:48.293Z,-0.70
2018-12-12T07:14:15.741Z,-0.60
2018-12-12T07:16:43.222Z,-0.60
2018-12-12T07:19:10.713Z,-0.40
2018-12-12T07:21:38.218Z,-0.30
2018-12-12T07:24:05.730Z,-0.10
2018-12-12T07:26:33.184Z,-0.30
2018-12-12T07:29:00.627Z,-0.20
2018-12-12T07:31:28.133Z,-0.30
2018-12-12T07:34:00.941Z,-0.30
2018-12-12T07:36:25.750Z,-0.30
2018-12-12T07:38:53.201Z,-0.20
2018-12-12T07:41:20.833Z,-0.20
2018-12-12T07:43:48.435Z,-0.20
2018-12-12T07:46:16.238Z,-0.20
2018-12-12T07:48:43.706Z,-0.20
2018-12-12T07:51:12.057Z,-0.20
2018-12-12T07:53:39.526Z,-0.20
2018-12-12T07:56:07.005Z,-0.10
2018-12-12T07:58:34.496Z,0.00
2018-12-12T08:01:02.695Z,0.00
2018-12-12T08:03:30.297Z,-0.10
2018-12-12T08:05:57.738Z,0.10
2018-12-12T08:08:25.199Z,0.20
2018-12-12T08:10:52.674Z,0.10
2018-12-12T08:13:20.126Z,0.00
2018-12-12T08:15:47.640Z,0.00
2018-12-12T08:18:15.112Z,-0.10
2018-12-12T08:20:42.557Z,-0.20
2018-12-12T08:23:10.353Z,-0.20
2018-12-12T08:25:38.669Z,0.00
2018-12-12T08:28:06.131Z,-0.20
2018-12-12T08:30:33.583Z,-0.10
2018-12-12T08:33:01.042Z,0.00
2018-12-12T08:35:28.496Z,0.10
2018-12-12T08:37:55.954Z,0.20
2018-12-12T08:40:23.416Z,0.20
2018-12-12T08:42:50.865Z,0.20
2018-12-12T08:45:18.321Z,0.20
2018-12-12T08:47:45.786Z,0.20
2018-12-12T08:50:13.293Z,0.30
2018-12-12T08:52:40.793Z,0.50
2018-12-12T08:55:08.302Z,0.50
2018-12-12T08:57:35.779Z,0.30
2018-12-12T09:00:03.897Z,0.20
2018-12-12T09:02:31.458Z,0.30
2018-12-12T09:04:58.906Z,0.20
2018-12-12T09:07:26.398Z,0.30
2018-12-12T09:09:53.855Z,0.60
2018-12-12T09:12:21.305Z,0.40
2018-12-12T09:14:48.785Z,0.40
2018-12-12T09:17:16.268Z,0.60
2018-12-12T09:19:43.717Z,0.70
2018-12-12T09:22:11.173Z,0.60
2018-12-12T09:24:38.622Z,0.50
2018-12-12T09:27:06.070Z,0.40
2018-12-12T09:29:33.525Z,0.30
2018-12-12T09:32:01.034Z,0.20
2018-12-12T09:34:28.501Z,0.20
2018-12-12T09:36:55.953Z,0.40
2018-12-12T09:39:23.419Z,0.40
2018-12-12T09:41:50.866Z,0.30
2018-12-12T09:44:18.497Z,0.40
2018-12-12T09:46:45.988Z,0.40
2018-12-12T09:49:13.453Z,0.20
2018-12-12T09:51:40.899Z,0.30
2018-12-12T09:54:08.448Z,0.40
2018-12-12T09:56:35.899Z,0.40
2018-12-12T09:59:03.419Z,0.40
2018-12-12T10:01:30.870Z,0.70
2018-12-12T10:03:58.325Z,0.80
2018-12-12T10:06:25.815Z,0.90
2018-12-12T10:08:53.311Z,0.90
2018-12-12T10:11:20.790Z,0.90
2018-12-12T10:13:48.265Z,0.70
2018-12-12T10:16:15.699Z,0.60
2018-12-12T10:18:43.193Z,0.60
2018-12-12T10:21:10.652Z,0.60
2018-12-12T10:23:38.094Z,0.70
2018-12-12T10:26:05.709Z,0.70
2018-12-12T10:28:33.205Z,0.60
2018-12-12T10:31:00.664Z,0.70
2018-12-12T10:33:28.126Z,0.80
2018-12-12T10:35:55.587Z,0.70
2018-12-12T10:38:23.055Z,0.80
2018-12-12T10:40:50.508Z,0.70
2018-12-12T10:43:17.969Z,0.60
2018-12-12T10:45:45.422Z,0.80
2018-12-12T10:48:12.900Z,0.80
2018-12-12T10:50:40.389Z,1.00
2018-12-12T10:53:07.878Z,1.00
2018-12-12T10:55:35.334Z,1.10
2018-12-12T10:58:02.839Z,1.20
2018-12-12T11:00:30.293Z,1.20
2018-12-12T11:03:03.397Z,1.30
2018-12-12T11:05:30.903Z,1.10
2018-12-12T11:07:58.366Z,1.10
2018-12-12T11:10:26.454Z,1.10
2018-12-12T11:12:53.903Z,1.20
2018-12-12T11:15:21.369Z,1.20
2018-12-12T11:17:48.857Z,1.20
2018-12-12T11:20:16.308Z,1.20
2018-12-12T11:22:43.753Z,1.00
2018-12-12T11:25:11.241Z,0.80
2018-12-12T11:27:38.697Z,0.90
2018-12-12T11:30:06.714Z,1.00
2018-12-12T11:32:34.177Z,1.00
2018-12-12T11:35:01.667Z,1.20
2018-12-12T11:37:29.115Z,1.30
2018-12-12T11:39:56.589Z,1.20
2018-12-12T11:42:24.061Z,1.30
2018-12-12T11:44:51.523Z,1.30
2018-12-12T11:47:18.969Z,1.30
2018-12-12T11:49:46.448Z,1.30
2018-12-12T11:52:13.918Z,1.40
2018-12-12T11:54:41.372Z,1.50
2018-12-12T11:57:09.170Z,1.50
2018-12-12T11:59:36.637Z,1.30
2018-12-12T12:02:04.125Z,1.20
2018-12-12T12:04:31.586Z,1.20
2018-12-12T12:06:59.088Z,1.20
2018-12-12T12:09:26.564Z,1.30
2018-12-12T12:11:54.112Z,1.50
2018-12-12T12:14:21.875Z,1.50
2018-12-12T12:16:49.307Z,1.60
2018-12-12T12:19:17.622Z,1.60
2018-12-12T12:21:45.080Z,1.50
2018-12-12T12:24:12.540Z,1.50
2018-12-12T12:26:40.016Z,1.40
2018-12-12T12:29:07.834Z,1.40
2018-12-12T12:31:35.565Z,1.50
2018-12-12T12:34:03.341Z,1.50
2018-12-12T12:36:31.012Z,1.40
2018-12-12T12:38:58.485Z,1.40
2018-12-12T12:41:25.938Z,1.50
2018-12-12T12:43:53.402Z,1.60
2018-12-12T12:46:20.880Z,1.60
2018-12-12T12:48:48.329Z,1.70
2018-12-12T12:51:15.793Z,1.80
2018-12-12T12:53:43.264Z,1.80
2018-12-12T12:56:10.718Z,1.90
2018-12-12T12:58:38.169Z,1.80
2018-12-12T13:01:05.656Z,1.70
2018-12-12T13:03:33.109Z,1.70
2018-12-12T13:06:00.571Z,1.80
2018-12-12T13:08:28.026Z,1.70
2018-12-12T13:10:55.770Z,1.70
2018-12-12T13:13:23.544Z,1.80
2018-12-12T13:15:51.442Z,1.90
2018-12-12T13:18:18.917Z,1.80
2018-12-12T13:20:46.373Z,1.70
2018-12-12T13:23:13.881Z,1.80
2018-12-12T13:25:41.669Z,1.70
2018-12-12T13:28:09.140Z,1.70
2018-12-12T13:30:36.613Z,1.70
2018-12-12T13:33:04.124Z,1.80
2018-12-12T13:35:31.580Z,1.80
2018-12-12T13:38:00.037Z,1.80
2018-12-12T13:40:27.865Z,1.80
2018-12-12T13:42:55.299Z,1.80
2018-12-12T13:45:22.760Z,1.70
2018-12-12T13:47:50.205Z,1.80
2018-12-12T13:50:17.705Z,1.80
2018-12-12T13:52:45.157Z,1.90
2018-12-12T13:55:12.621Z,1.90
2018-12-12T13:57:40.127Z,1.80
2018-12-12T14:00:07.664Z,1.90
2018-12-12T14:02:35.352Z,1.80
2018-12-12T14:05:03.038Z,1.90
2018-12-12T14:07:30.490Z,2.00
2018-12-12T14:09:57.943Z,2.00
2018-12-12T14:12:25.437Z,2.10
2018-12-12T14:14:53.165Z,2.20
2018-12-12T14:17:20.624Z,2.30
2018-12-12T14:19:48.117Z,2.30
2018-12-12T14:22:15.951Z,2.30
2018-12-12T14:24:43.470Z,2.30
2018-12-12T14:27:10.921Z,2.30
2018-12-12T14:29:38.403Z,2.20
2018-12-12T14:32:05.876Z,2.20
2018-12-12T14:34:33.328Z,2.20
2018-12-12T14:37:00.808Z,2.20
2018-12-12T14:39:28.270Z,2.20
2018-12-12T14:41:55.717Z,2.10
2018-12-12T14:44:23.914Z,2.10
2018-12-12T14:46:51.402Z,2.10
2018-12-12T14:49:18.861Z,2.20
2018-12-12T14:51:46.981Z,2.20
2018-12-12T14:54:14.767Z,2.20
2018-12-12T14:56:42.235Z,2.20
2018-12-12T14:59:09.685Z,2.20
2018-12-12T15:01:37.197Z,2.30
2018-12-12T15:04:04.977Z,2.20
2018-12-12T15:06:32.464Z,2.20
2018-12-12T15:08:59.978Z,2.20
2018-12-12T15:11:27.438Z,2.20
2018-12-12T15:13:55.245Z,2.20
2018-12-12T15:16:22.731Z,2.00
2018-12-12T15:18:50.172Z,2.10
2018-12-12T15:21:17.934Z,2.10
2018-12-12T15:23:45.796Z,2.00
2018-12-12T15:26:13.268Z,1.90
2018-12-12T15:28:40.727Z,2.00
2018-12-12T15:31:08.214Z,2.00
2018-12-12T15:33:35.665Z,1.90
2018-12-12T15:36:03.169Z,1.90
2018-12-12T15:38:30.636Z,1.70
2018-12-12T15:40:58.993Z,1.80
2018-12-12T15:43:26.440Z,1.80
2018-12-12T15:45:54.185Z,1.80
2018-12-12T15:48:21.657Z,1.90
2018-12-12T15:50:49.341Z,1.80
2018-12-12T15:53:16.795Z,1.80
2018-12-12T15:55:44.272Z,1.70
2018-12-12T15:58:11.724Z,1.60
2018-12-12T16:00:39.190Z,1.50
2018-12-12T16:03:06.815Z,1.50
2018-12-12T16:05:34.687Z,1.50
2018-12-12T16:08:02.131Z,1.40
2018-12-12T16:10:29.594Z,1.50
2018-12-12T16:12:57.100Z,1.50
2018-12-12T16:15:24.548Z,1.50
2018-12-12T16:17:52.014Z,1.40
2018-12-12T16:20:19.872Z,1.60
2018-12-12T16:22:47.328Z,1.60
2018-12-12T16:25:14.782Z,1.70
2018-12-12T16:27:42.259Z,1.80
2018-12-12T16:30:09.841Z,1.60
2018-12-12T16:32:37.374Z,1.40
2018-12-12T16:35:04.925Z,1.30
2018-12-12T16:37:32.397Z,1.30
2018-12-12T16:40:00.202Z,1.20
2018-12-12T16:42:27.678Z,1.10
2018-12-12T16:44:55.159Z,1.20
2018-12-12T16:47:22.661Z,1.10
2018-12-12T16:49:50.125Z,1.10
2018-12-12T16:52:17.628Z,1.00
2018-12-12T16:54:45.079Z,0.90
2018-12-12T16:57:12.582Z,0.80
2018-12-12T16:59:40.038Z,0.80
2018-12-12T17:02:07.525Z,0.70
2018-12-12T17:04:34.982Z,0.80
2018-12-12T17:07:02.472Z,0.70
2018-12-12T17:09:29.921Z,0.50
2018-12-12T17:11:57.418Z,0.40
2018-12-12T17:14:26.145Z,0.40
2018-12-12T17:16:53.602Z,0.50
2018-12-12T17:19:21.310Z,0.20
2018-12-12T17:21:48.781Z,0.30
2018-12-12T17:24:16.255Z,0.50
2018-12-12T17:26:43.717Z,0.60
2018-12-12T17:29:11.205Z,0.70
2018-12-12T17:31:38.706Z,0.70
2018-12-12T17:34:06.163Z,0.70
2018-12-12T17:36:33.608Z,0.70
2018-12-12T17:39:01.075Z,0.70
2018-12-12T17:41:28.546Z,0.70
2018-12-12T17:43:56.016Z,0.70
2018-12-12T17:46:23.474Z,0.70
2018-12-12T17:48:50.937Z,0.80
2018-12-12T17:51:18.403Z,0.70
2018-12-12T17:53:46.698Z,0.70
2018-12-12T17:56:14.174Z,0.60
2018-12-12T17:58:41.637Z,0.70
2018-12-12T18:01:09.151Z,0.70
2018-12-12T18:03:36.986Z,0.80
2018-12-12T18:06:04.440Z,0.70
2018-12-12T18:08:31.908Z,0.60
2018-12-12T18:10:59.373Z,0.60
2018-12-12T18:13:26.845Z,0.60
2018-12-12T18:15:54.293Z,0.70
2018-12-12T18:18:21.765Z,0.70
2018-12-12T18:20:49.212Z,0.70
2018-12-12T18:23:16.678Z,0.60
2018-12-12T18:25:44.140Z,0.70
2018-12-12T18:28:11.629Z,0.70
2018-12-12T18:30:39.121Z,0.80
2018-12-12T18:33:06.618Z,0.80
2018-12-12T18:35:34.114Z,0.70
2018-12-12T18:38:01.586Z,0.80
2018-12-12T18:40:29.053Z,0.90
2018-12-12T18:42:56.509Z,1.00
2018-12-12T18:45:23.962Z,1.00
2018-12-12T18:47:51.464Z,1.20
2018-12-12T18:50:19.174Z,1.10
2018-12-12T18:52:47.060Z,1.00
2018-12-12T18:55:14.537Z,0.90
2018-12-12T18:57:41.999Z,1.00
2018-12-12T19:00:09.627Z,1.10
2018-12-12T19:02:37.113Z,1.10
2018-12-12T19:12:04.847Z,1.20
2018-12-12T19:14:32.340Z,1.30
2018-12-12T19:16:59.835Z,1.30
2018-12-12T19:19:27.296Z,1.20
2018-12-12T19:21:54.761Z,1.10
2018-12-12T19:24:22.256Z,1.10
2018-12-12T19:26:49.707Z,1.10
2018-12-12T19:29:17.169Z,1.10
2018-12-12T19:31:44.621Z,1.10
2018-12-12T19:34:12.093Z,1.10
2018-12-12T19:36:39.537Z,1.10
2018-12-12T19:39:07.354Z,1.10
2018-12-12T19:41:34.809Z,1.10
2018-12-12T19:44:02.310Z,1.20
2018-12-12T19:46:29.774Z,1.20
2018-12-12T19:48:57.223Z,1.20
2018-12-12T19:51:24.700Z,1.30
2018-12-12T19:53:52.164Z,1.40
2018-12-12T19:56:19.753Z,1.40
2018-12-12T19:58:47.238Z,1.50
2018-12-12T20:01:14.693Z,1.40
2018-12-12T20:03:42.156Z,1.40
2018-12-12T20:06:09.619Z,1.50
2018-12-12T20:08:37.116Z,1.60
2018-12-12T20:11:04.573Z,1.60
2018-12-12T20:13:32.043Z,1.50
2018-12-12T20:15:59.826Z,1.40
2018-12-12T20:18:27.293Z,1.30
2018-12-12T20:20:54.732Z,1.30
2018-12-12T20:23:22.295Z,1.30
2018-12-12T20:25:49.794Z,1.40
2018-12-12T20:28:17.264Z,1.60
2018-12-12T20:30:44.970Z,1.60
2018-12-12T20:33:12.449Z,1.60
2018-12-12T20:35:39.914Z,1.50
2018-12-12T20:38:09.302Z,1.30
2018-12-12T20:40:36.857Z,1.30
2018-12-12T20:43:04.342Z,1.40
2018-12-12T20:45:31.799Z,1.30
2018-12-12T20:47:59.404Z,1.30
2018-12-12T20:50:26.864Z,1.10
2018-12-12T20:52:54.316Z,1.10
2018-12-12T20:55:21.866Z,1.30
2018-12-12T20:57:49.313Z,1.30
2018-12-12T21:00:16.768Z,1.30
2018-12-12T21:02:44.220Z,1.10
2018-12-12T21:05:11.689Z,0.90
2018-12-12T21:07:39.150Z,1.00
2018-12-12T21:10:06.855Z,1.00
2018-12-12T21:12:34.360Z,0.80
2018-12-12T21:15:01.806Z,0.70
2018-12-12T21:17:29.253Z,0.60
2018-12-12T21:19:57.565Z,0.80
2018-12-12T21:22:25.018Z,0.70
2018-12-12T21:24:52.487Z,0.60
2018-12-12T21:27:19.925Z,0.70
2018-12-12T21:29:47.378Z,0.90
2018-12-12T21:32:14.834Z,0.90
2018-12-12T21:34:42.297Z,1.10
2018-12-12T21:37:09.805Z,1.10
2018-12-12T21:39:37.265Z,1.30
2018-12-12T21:42:04.749Z,1.30
2018-12-12T21:44:32.220Z,1.50
2018-12-12T21:46:59.752Z,1.50
2018-12-12T21:49:27.264Z,1.60
2018-12-12T21:51:54.890Z,1.70
2018-12-12T21:54:22.343Z,1.70
2018-12-12T21:56:49.801Z,1.80
2018-12-12T21:59:17.373Z,1.80
2018-12-12T22:01:45.581Z,1.70
2018-12-12T22:04:13.130Z,1.40
2018-12-12T22:06:40.587Z,1.20
2018-12-12T22:09:08.205Z,1.30
2018-12-12T22:11:35.691Z,1.30
2018-12-12T22:14:03.314Z,1.30
2018-12-12T22:16:30.783Z,1.40
2018-12-12T22:18:58.270Z,1.50
2018-12-12T22:21:25.757Z,1.60
2018-12-12T22:23:53.224Z,1.50
2018-12-12T22:26:20.675Z,1.20
2018-12-12T22:28:48.154Z,1.40
2018-12-12T22:31:16.041Z,1.20
2018-12-12T22:33:43.489Z,1.20
2018-12-12T22:36:14.127Z,1.30
2018-12-12T22:38:40.428Z,1.10
2018-12-12T22:41:07.912Z,1.10
2018-12-12T22:43:35.359Z,0.90
2018-12-12T22:46:02.850Z,1.00
2018-12-12T22:48:30.310Z,1.20
2018-12-12T22:50:57.776Z,1.40
2018-12-12T22:53:25.222Z,1.20
2018-12-12T22:55:52.674Z,1.40
2018-12-12T22:58:20.132Z,1.50
2018-12-12T23:00:49.897Z,1.50
2018-12-12T23:03:17.749Z,1.40
2018-12-12T23:05:45.188Z,1.50
2018-12-12T23:08:12.628Z,1.30
2018-12-12T23:10:40.125Z,1.20
2018-12-12T23:13:07.910Z,1.20
2018-12-12T23:15:35.344Z,1.20
2018-12-12T23:18:02.803Z,1.20
2018-12-12T23:20:30.261Z,1.20
2018-12-12T23:22:57.733Z,1.00
2018-12-12T23:25:25.225Z,1.10
2018-12-12T23:27:52.690Z,1.10
2018-12-12T23:30:20.145Z,0.80
2018-12-12T23:32:47.595Z,0.70
2018-12-12T23:35:15.053Z,0.70
2018-12-12T23:37:42.544Z,1.00
2018-12-12T23:40:10.037Z,1.10
2018-12-12T23:42:37.526Z,1.00
2018-12-12T23:45:05.353Z,1.10
2018-12-12T23:47:32.798Z,1.10
2018-12-12T23:50:00.258Z,1.00
2018-12-12T23:52:27.745Z,0.90
2018-12-12T23:54:55.210Z,0.70
2018-12-12T23:57:22.677Z,0.80
2018-12-12T23:59:50.506Z,0.80
